sensor_id;sensor_type;location;lat;lon;timestamp;P1;P2;P0
74880;PMS5003;63427;49.654;6.596;2023-08-08T00:00:53;2;2;
74880;PMS5003;63427;49.654;6.596;2023-08-08T00:03:18;1;1;
74880;PMS5003;63427;49.654;6.596;2023-08-08T00:05:44;2;2;
74880;PMS5003;63427;49.654;6.596;2023-08-08T00:08:09;1;1;
74880;PMS5003;63427;49.654;6.596;2023-08-08T00:10:35;3;3;
74880;PMS5003;63427;49.654;6.596;2023-08-08T00:13:01;2;2;
74880;PMS5003;63427;49.654;6.596;2023-08-08T00:15:26;2;2;
74880;PMS5003;63427;49.654;6.596;2023-08-08T00:17:51;2;2;
74880;PMS5003;63427;49.654;6.596;2023-08-08T00:20:17;2;2;
74880;PMS5003;63427;49.654;6.596;2023-08-08T00:22:42;2;2;
74880;PMS5003;63427;49.654;6.596;2023-08-08T00:25:08;1;1;
74880;PMS5003;63427;49.654;6.596;2023-08-08T00:27:33;2;2;
74880;PMS5003;63427;49.654;6.596;2023-08-08T00:29:58;2;2;
74880;PMS5003;63427;49.654;6.596;2023-08-08T00:32:24;2;2;
74880;PMS5003;63427;49.654;6.596;2023-08-08T00:34:49;2;2;
74880;PMS5003;63427;49.654;6.596;2023-08-08T00:37:15;2;2;
74880;PMS5003;63427;49.654;6.596;2023-08-08T00:39:40;2;2;
74880;PMS5003;63427;49.654;6.596;2023-08-08T00:42:06;2;2;
74880;PMS5003;63427;49.654;6.596;2023-08-08T00:44:31;4;4;
74880;PMS5003;63427;49.654;6.596;2023-08-08T00:46:57;3;3;
74880;PMS5003;63427;49.654;6.596;2023-08-08T00:49:22;2;2;
74880;PMS5003;63427;49.654;6.596;2023-08-08T00:51:48;4;3;
74880;PMS5003;63427;49.654;6.596;2023-08-08T00:54:13;3;3;
74880;PMS5003;63427;49.654;6.596;2023-08-08T00:56:39;3;3;
74880;PMS5003;63427;49.654;6.596;2023-08-08T00:59:04;4;4;
74880;PMS5003;63427;49.654;6.596;2023-08-08T01:01:30;1;1;
74880;PMS5003;63427;49.654;6.596;2023-08-08T01:03:55;3;3;
74880;PMS5003;63427;49.654;6.596;2023-08-08T01:06:23;2;2;
74880;PMS5003;63427;49.654;6.596;2023-08-08T01:08:47;3;2;
74880;PMS5003;63427;49.654;6.596;2023-08-08T01:11:12;3;3;
74880;PMS5003;63427;49.654;6.596;2023-08-08T01:13:37;3;3;
74880;PMS5003;63427;49.654;6.596;2023-08-08T01:16:03;2;2;
74880;PMS5003;63427;49.654;6.596;2023-08-08T01:18:28;3;3;
74880;PMS5003;63427;49.654;6.596;2023-08-08T01:20:54;3;3;
74880;PMS5003;63427;49.654;6.596;2023-08-08T01:23:24;2;2;
74880;PMS5003;63427;49.654;6.596;2023-08-08T01:25:45;3;3;
74880;PMS5003;63427;49.654;6.596;2023-08-08T01:28:10;3;3;
74880;PMS5003;63427;49.654;6.596;2023-08-08T01:30:36;2;2;
74880;PMS5003;63427;49.654;6.596;2023-08-08T01:33:03;5;5;
74880;PMS5003;63427;49.654;6.596;2023-08-08T01:35:28;3;3;
74880;PMS5003;63427;49.654;6.596;2023-08-08T01:37:53;4;4;
74880;PMS5003;63427;49.654;6.596;2023-08-08T01:40:18;2;2;
74880;PMS5003;63427;49.654;6.596;2023-08-08T01:42:43;3;3;
74880;PMS5003;63427;49.654;6.596;2023-08-08T01:45:09;2;2;
74880;PMS5003;63427;49.654;6.596;2023-08-08T01:47:35;1;1;
74880;PMS5003;63427;49.654;6.596;2023-08-08T01:50:00;3;3;
74880;PMS5003;63427;49.654;6.596;2023-08-08T01:52:25;3;3;
74880;PMS5003;63427;49.654;6.596;2023-08-08T01:54:51;3;3;
74880;PMS5003;63427;49.654;6.596;2023-08-08T01:57:16;4;3;
74880;PMS5003;63427;49.654;6.596;2023-08-08T01:59:42;4;4;
74880;PMS5003;63427;49.654;6.596;2023-08-08T02:02:08;3;3;
74880;PMS5003;63427;49.654;6.596;2023-08-08T02:04:33;5;4;
74880;PMS5003;63427;49.654;6.596;2023-08-08T02:06:59;3;2;
74880;PMS5003;63427;49.654;6.596;2023-08-08T02:09:24;4;3;
74880;PMS5003;63427;49.654;6.596;2023-08-08T02:11:50;4;4;
74880;PMS5003;63427;49.654;6.596;2023-08-08T02:14:15;3;3;
74880;PMS5003;63427;49.654;6.596;2023-08-08T02:16:41;2;2;
74880;PMS5003;63427;49.654;6.596;2023-08-08T02:19:06;3;3;
74880;PMS5003;63427;49.654;6.596;2023-08-08T02:21:32;2;2;
74880;PMS5003;63427;49.654;6.596;2023-08-08T02:23:57;3;3;
74880;PMS5003;63427;49.654;6.596;2023-08-08T02:26:24;2;2;
74880;PMS5003;63427;49.654;6.596;2023-08-08T02:28:48;2;2;
74880;PMS5003;63427;49.654;6.596;2023-08-08T02:31:14;3;3;
74880;PMS5003;63427;49.654;6.596;2023-08-08T02:33:40;3;3;
74880;PMS5003;63427;49.654;6.596;2023-08-08T02:36:05;4;4;
74880;PMS5003;63427;49.654;6.596;2023-08-08T02:38:31;3;3;
74880;PMS5003;63427;49.654;6.596;2023-08-08T02:40:56;4;4;
74880;PMS5003;63427;49.654;6.596;2023-08-08T02:43:22;3;3;
74880;PMS5003;63427;49.654;6.596;2023-08-08T02:45:47;5;4;
74880;PMS5003;63427;49.654;6.596;2023-08-08T02:48:13;3;3;
74880;PMS5003;63427;49.654;6.596;2023-08-08T02:50:38;3;3;
74880;PMS5003;63427;49.654;6.596;2023-08-08T02:53:04;3;3;
74880;PMS5003;63427;49.654;6.596;2023-08-08T02:55:29;2;2;
74880;PMS5003;63427;49.654;6.596;2023-08-08T02:57:55;3;3;
74880;PMS5003;63427;49.654;6.596;2023-08-08T03:00:21;4;3;
74880;PMS5003;63427;49.654;6.596;2023-08-08T03:02:46;3;3;
74880;PMS5003;63427;49.654;6.596;2023-08-08T03:05:12;2;2;
74880;PMS5003;63427;49.654;6.596;2023-08-08T03:07:37;3;2;
74880;PMS5003;63427;49.654;6.596;2023-08-08T03:10:03;2;2;
74880;PMS5003;63427;49.654;6.596;2023-08-08T03:12:28;3;3;
74880;PMS5003;63427;49.654;6.596;2023-08-08T03:14:54;4;3;
74880;PMS5003;63427;49.654;6.596;2023-08-08T03:17:19;3;3;
74880;PMS5003;63427;49.654;6.596;2023-08-08T03:19:45;2;2;
74880;PMS5003;63427;49.654;6.596;2023-08-08T03:22:11;2;2;
74880;PMS5003;63427;49.654;6.596;2023-08-08T03:24:36;3;3;
74880;PMS5003;63427;49.654;6.596;2023-08-08T03:27:02;3;3;
74880;PMS5003;63427;49.654;6.596;2023-08-08T03:29:28;3;3;
74880;PMS5003;63427;49.654;6.596;2023-08-08T03:31:53;4;4;
74880;PMS5003;63427;49.654;6.596;2023-08-08T03:34:18;3;3;
74880;PMS5003;63427;49.654;6.596;2023-08-08T03:36:44;3;3;
74880;PMS5003;63427;49.654;6.596;2023-08-08T03:39:10;2;2;
74880;PMS5003;63427;49.654;6.596;2023-08-08T03:41:35;3;3;
74880;PMS5003;63427;49.654;6.596;2023-08-08T03:44:01;3;2;
74880;PMS5003;63427;49.654;6.596;2023-08-08T03:46:26;4;3;
74880;PMS5003;63427;49.654;6.596;2023-08-08T03:48:52;2;2;
74880;PMS5003;63427;49.654;6.596;2023-08-08T03:51:18;2;2;
74880;PMS5003;63427;49.654;6.596;2023-08-08T03:53:43;3;3;
74880;PMS5003;63427;49.654;6.596;2023-08-08T03:56:09;2;2;
74880;PMS5003;63427;49.654;6.596;2023-08-08T03:58:34;2;2;
74880;PMS5003;63427;49.654;6.596;2023-08-08T04:01:00;3;3;
74880;PMS5003;63427;49.654;6.596;2023-08-08T04:03:26;2;2;
74880;PMS5003;63427;49.654;6.596;2023-08-08T04:05:51;4;4;
74880;PMS5003;63427;49.654;6.596;2023-08-08T04:08:17;3;3;
74880;PMS5003;63427;49.654;6.596;2023-08-08T04:10:42;4;3;
74880;PMS5003;63427;49.654;6.596;2023-08-08T04:13:08;2;2;
74880;PMS5003;63427;49.654;6.596;2023-08-08T04:15:33;4;4;
74880;PMS5003;63427;49.654;6.596;2023-08-08T04:17:59;2;2;
74880;PMS5003;63427;49.654;6.596;2023-08-08T04:20:25;3;3;
74880;PMS5003;63427;49.654;6.596;2023-08-08T04:22:50;3;3;
74880;PMS5003;63427;49.654;6.596;2023-08-08T04:25:16;3;3;
74880;PMS5003;63427;49.654;6.596;2023-08-08T04:27:41;3;3;
74880;PMS5003;63427;49.654;6.596;2023-08-08T04:30:07;3;3;
74880;PMS5003;63427;49.654;6.596;2023-08-08T04:32:33;3;3;
74880;PMS5003;63427;49.654;6.596;2023-08-08T04:34:58;2;2;
74880;PMS5003;63427;49.654;6.596;2023-08-08T04:37:24;2;2;
74880;PMS5003;63427;49.654;6.596;2023-08-08T04:39:49;3;3;
74880;PMS5003;63427;49.654;6.596;2023-08-08T04:42:15;3;3;
74880;PMS5003;63427;49.654;6.596;2023-08-08T04:44:41;4;4;
74880;PMS5003;63427;49.654;6.596;2023-08-08T04:47:06;5;4;
74880;PMS5003;63427;49.654;6.596;2023-08-08T04:49:32;4;4;
74880;PMS5003;63427;49.654;6.596;2023-08-08T04:51:57;3;3;
74880;PMS5003;63427;49.654;6.596;2023-08-08T04:54:23;5;4;
74880;PMS5003;63427;49.654;6.596;2023-08-08T04:56:49;4;4;
74880;PMS5003;63427;49.654;6.596;2023-08-08T04:59:14;4;3;
74880;PMS5003;63427;49.654;6.596;2023-08-08T05:01:40;5;5;
74880;PMS5003;63427;49.654;6.596;2023-08-08T05:04:05;4;4;
74880;PMS5003;63427;49.654;6.596;2023-08-08T05:08:57;4;4;
74880;PMS5003;63427;49.654;6.596;2023-08-08T05:11:22;4;4;
74880;PMS5003;63427;49.654;6.596;2023-08-08T05:13:48;3;3;
74880;PMS5003;63427;49.654;6.596;2023-08-08T05:16:13;4;4;
74880;PMS5003;63427;49.654;6.596;2023-08-08T05:18:39;3;3;
74880;PMS5003;63427;49.654;6.596;2023-08-08T05:21:04;3;3;
74880;PMS5003;63427;49.654;6.596;2023-08-08T05:23:30;3;3;
74880;PMS5003;63427;49.654;6.596;2023-08-08T05:25:56;4;4;
74880;PMS5003;63427;49.654;6.596;2023-08-08T05:28:21;4;4;
74880;PMS5003;63427;49.654;6.596;2023-08-08T05:30:47;5;5;
74880;PMS5003;63427;49.654;6.596;2023-08-08T05:33:12;3;3;
74880;PMS5003;63427;49.654;6.596;2023-08-08T05:35:38;4;4;
74880;PMS5003;63427;49.654;6.596;2023-08-08T05:38:03;3;3;
74880;PMS5003;63427;49.654;6.596;2023-08-08T05:40:29;4;4;
74880;PMS5003;63427;49.654;6.596;2023-08-08T05:42:54;4;4;
74880;PMS5003;63427;49.654;6.596;2023-08-08T05:45:20;5;5;
74880;PMS5003;63427;49.654;6.596;2023-08-08T05:47:46;4;4;
74880;PMS5003;63427;49.654;6.596;2023-08-08T05:50:11;4;4;
74880;PMS5003;63427;49.654;6.596;2023-08-08T05:52:37;5;5;
74880;PMS5003;63427;49.654;6.596;2023-08-08T05:55:02;5;5;
74880;PMS5003;63427;49.654;6.596;2023-08-08T05:57:28;4;4;
74880;PMS5003;63427;49.654;6.596;2023-08-08T05:59:53;4;4;
74880;PMS5003;63427;49.654;6.596;2023-08-08T06:02:19;5;5;
74880;PMS5003;63427;49.654;6.596;2023-08-08T06:04:44;4;4;
74880;PMS5003;63427;49.654;6.596;2023-08-08T06:07:10;5;5;
74880;PMS5003;63427;49.654;6.596;2023-08-08T06:09:35;5;5;
74880;PMS5003;63427;49.654;6.596;2023-08-08T06:12:01;5;4;
74880;PMS5003;63427;49.654;6.596;2023-08-08T06:14:26;6;6;
74880;PMS5003;63427;49.654;6.596;2023-08-08T06:16:52;6;6;
74880;PMS5003;63427;49.654;6.596;2023-08-08T06:19:17;5;5;
74880;PMS5003;63427;49.654;6.596;2023-08-08T06:21:42;3;3;
74880;PMS5003;63427;49.654;6.596;2023-08-08T06:24:08;5;5;
74880;PMS5003;63427;49.654;6.596;2023-08-08T06:26:33;4;4;
74880;PMS5003;63427;49.654;6.596;2023-08-08T06:28:59;5;5;
74880;PMS5003;63427;49.654;6.596;2023-08-08T06:31:24;4;4;
74880;PMS5003;63427;49.654;6.596;2023-08-08T06:33:50;5;5;
74880;PMS5003;63427;49.654;6.596;2023-08-08T06:36:15;4;3;
74880;PMS5003;63427;49.654;6.596;2023-08-08T06:38:40;6;6;
74880;PMS5003;63427;49.654;6.596;2023-08-08T06:41:06;4;4;
74880;PMS5003;63427;49.654;6.596;2023-08-08T06:43:31;4;4;
74880;PMS5003;63427;49.654;6.596;2023-08-08T06:45:57;2;2;
74880;PMS5003;63427;49.654;6.596;2023-08-08T06:48:22;4;4;
74880;PMS5003;63427;49.654;6.596;2023-08-08T06:50:47;4;4;
74880;PMS5003;63427;49.654;6.596;2023-08-08T06:53:14;4;4;
74880;PMS5003;63427;49.654;6.596;2023-08-08T06:55:38;4;3;
74880;PMS5003;63427;49.654;6.596;2023-08-08T06:58:04;3;3;
74880;PMS5003;63427;49.654;6.596;2023-08-08T07:00:29;3;3;
74880;PMS5003;63427;49.654;6.596;2023-08-08T07:02:54;4;4;
74880;PMS5003;63427;49.654;6.596;2023-08-08T07:05:20;6;5;
74880;PMS5003;63427;49.654;6.596;2023-08-08T07:07:45;4;4;
74880;PMS5003;63427;49.654;6.596;2023-08-08T07:10:10;5;4;
74880;PMS5003;63427;49.654;6.596;2023-08-08T07:12:36;4;4;
74880;PMS5003;63427;49.654;6.596;2023-08-08T07:15:01;3;3;
74880;PMS5003;63427;49.654;6.596;2023-08-08T07:17:26;3;2;
74880;PMS5003;63427;49.654;6.596;2023-08-08T07:19:52;3;3;
74880;PMS5003;63427;49.654;6.596;2023-08-08T07:22:17;3;3;
74880;PMS5003;63427;49.654;6.596;2023-08-08T07:24:42;4;3;
74880;PMS5003;63427;49.654;6.596;2023-08-08T07:27:07;3;2;
74880;PMS5003;63427;49.654;6.596;2023-08-08T07:29:33;5;5;
74880;PMS5003;63427;49.654;6.596;2023-08-08T07:31:58;3;3;
74880;PMS5003;63427;49.654;6.596;2023-08-08T07:34:23;5;5;
74880;PMS5003;63427;49.654;6.596;2023-08-08T07:36:48;4;4;
74880;PMS5003;63427;49.654;6.596;2023-08-08T07:39:14;3;3;
74880;PMS5003;63427;49.654;6.596;2023-08-08T07:41:39;5;3;
74880;PMS5003;63427;49.654;6.596;2023-08-08T07:44:04;5;4;
74880;PMS5003;63427;49.654;6.596;2023-08-08T07:46:29;3;3;
74880;PMS5003;63427;49.654;6.596;2023-08-08T07:48:55;3;3;
74880;PMS5003;63427;49.654;6.596;2023-08-08T07:51:20;5;4;
74880;PMS5003;63427;49.654;6.596;2023-08-08T07:53:45;5;4;
74880;PMS5003;63427;49.654;6.596;2023-08-08T07:56:10;6;6;
74880;PMS5003;63427;49.654;6.596;2023-08-08T07:58:36;4;4;
74880;PMS5003;63427;49.654;6.596;2023-08-08T08:01:01;4;4;
74880;PMS5003;63427;49.654;6.596;2023-08-08T08:03:26;3;3;
74880;PMS5003;63427;49.654;6.596;2023-08-08T08:05:51;4;4;
74880;PMS5003;63427;49.654;6.596;2023-08-08T08:08:17;3;3;
74880;PMS5003;63427;49.654;6.596;2023-08-08T08:10:42;5;4;
74880;PMS5003;63427;49.654;6.596;2023-08-08T08:13:07;4;4;
74880;PMS5003;63427;49.654;6.596;2023-08-08T08:15:32;5;5;
74880;PMS5003;63427;49.654;6.596;2023-08-08T08:17:57;6;5;
74880;PMS5003;63427;49.654;6.596;2023-08-08T08:20:22;4;4;
74880;PMS5003;63427;49.654;6.596;2023-08-08T08:22:48;4;4;
74880;PMS5003;63427;49.654;6.596;2023-08-08T08:25:13;5;3;
74880;PMS5003;63427;49.654;6.596;2023-08-08T08:27:38;4;4;
74880;PMS5003;63427;49.654;6.596;2023-08-08T08:30:03;2;2;
74880;PMS5003;63427;49.654;6.596;2023-08-08T08:32:28;5;5;
74880;PMS5003;63427;49.654;6.596;2023-08-08T08:34:53;3;2;
74880;PMS5003;63427;49.654;6.596;2023-08-08T08:37:18;4;4;
74880;PMS5003;63427;49.654;6.596;2023-08-08T08:39:43;3;3;
74880;PMS5003;63427;49.654;6.596;2023-08-08T08:42:09;4;4;
74880;PMS5003;63427;49.654;6.596;2023-08-08T08:44:34;5;5;
74880;PMS5003;63427;49.654;6.596;2023-08-08T08:46:59;4;4;
74880;PMS5003;63427;49.654;6.596;2023-08-08T08:49:24;3;2;
74880;PMS5003;63427;49.654;6.596;2023-08-08T08:51:50;4;4;
74880;PMS5003;63427;49.654;6.596;2023-08-08T08:54:15;3;3;
74880;PMS5003;63427;49.654;6.596;2023-08-08T08:56:40;3;3;
74880;PMS5003;63427;49.654;6.596;2023-08-08T08:59:05;4;4;
74880;PMS5003;63427;49.654;6.596;2023-08-08T09:01:30;3;3;
74880;PMS5003;63427;49.654;6.596;2023-08-08T09:03:55;4;4;
74880;PMS5003;63427;49.654;6.596;2023-08-08T09:06:20;3;3;
74880;PMS5003;63427;49.654;6.596;2023-08-08T09:08:45;3;3;
74880;PMS5003;63427;49.654;6.596;2023-08-08T09:11:11;3;3;
74880;PMS5003;63427;49.654;6.596;2023-08-08T09:13:36;4;4;
74880;PMS5003;63427;49.654;6.596;2023-08-08T09:16:01;6;6;
74880;PMS5003;63427;49.654;6.596;2023-08-08T09:18:26;4;3;
74880;PMS5003;63427;49.654;6.596;2023-08-08T09:20:52;4;4;
74880;PMS5003;63427;49.654;6.596;2023-08-08T09:23:16;4;4;
74880;PMS5003;63427;49.654;6.596;2023-08-08T09:25:42;3;3;
74880;PMS5003;63427;49.654;6.596;2023-08-08T09:28:07;4;4;
74880;PMS5003;63427;49.654;6.596;2023-08-08T09:30:32;3;3;
74880;PMS5003;63427;49.654;6.596;2023-08-08T09:32:57;3;3;
74880;PMS5003;63427;49.654;6.596;2023-08-08T09:35:23;5;4;
74880;PMS5003;63427;49.654;6.596;2023-08-08T09:37:47;2;2;
74880;PMS5003;63427;49.654;6.596;2023-08-08T09:40:12;2;2;
74880;PMS5003;63427;49.654;6.596;2023-08-08T09:42:39;3;3;
74880;PMS5003;63427;49.654;6.596;2023-08-08T09:45:05;5;5;
74880;PMS5003;63427;49.654;6.596;2023-08-08T09:47:30;4;4;
74880;PMS5003;63427;49.654;6.596;2023-08-08T09:49:57;5;4;
74880;PMS5003;63427;49.654;6.596;2023-08-08T09:52:22;3;3;
74880;PMS5003;63427;49.654;6.596;2023-08-08T09:54:48;3;3;
74880;PMS5003;63427;49.654;6.596;2023-08-08T09:57:13;2;2;
74880;PMS5003;63427;49.654;6.596;2023-08-08T09:59:39;3;3;
74880;PMS5003;63427;49.654;6.596;2023-08-08T10:02:05;2;2;
74880;PMS5003;63427;49.654;6.596;2023-08-08T10:04:31;3;3;
74880;PMS5003;63427;49.654;6.596;2023-08-08T10:06:57;3;3;
74880;PMS5003;63427;49.654;6.596;2023-08-08T10:09:22;1;1;
74880;PMS5003;63427;49.654;6.596;2023-08-08T10:11:48;3;3;
74880;PMS5003;63427;49.654;6.596;2023-08-08T10:14:14;5;4;
74880;PMS5003;63427;49.654;6.596;2023-08-08T10:16:41;4;4;
74880;PMS5003;63427;49.654;6.596;2023-08-08T10:19:05;4;4;
74880;PMS5003;63427;49.654;6.596;2023-08-08T10:21:32;4;4;
74880;PMS5003;63427;49.654;6.596;2023-08-08T10:24:01;4;3;
74880;PMS5003;63427;49.654;6.596;2023-08-08T10:26:23;4;4;
74880;PMS5003;63427;49.654;6.596;2023-08-08T10:28:52;3;3;
74880;PMS5003;63427;49.654;6.596;2023-08-08T10:31:16;4;3;
74880;PMS5003;63427;49.654;6.596;2023-08-08T10:33:41;5;4;
74880;PMS5003;63427;49.654;6.596;2023-08-08T10:36:06;4;3;
74880;PMS5003;63427;49.654;6.596;2023-08-08T10:38:40;3;3;
74880;PMS5003;63427;49.654;6.596;2023-08-08T10:40:57;3;3;
74880;PMS5003;63427;49.654;6.596;2023-08-08T10:43:25;3;3;
74880;PMS5003;63427;49.654;6.596;2023-08-08T10:45:50;3;3;
74880;PMS5003;63427;49.654;6.596;2023-08-08T10:48:14;3;3;
74880;PMS5003;63427;49.654;6.596;2023-08-08T10:50:40;3;3;
74880;PMS5003;63427;49.654;6.596;2023-08-08T10:53:07;1;1;
74880;PMS5003;63427;49.654;6.596;2023-08-08T10:55:32;3;3;
74880;PMS5003;63427;49.654;6.596;2023-08-08T10:57:58;3;3;
74880;PMS5003;63427;49.654;6.596;2023-08-08T11:00:24;2;2;
74880;PMS5003;63427;49.654;6.596;2023-08-08T11:02:49;3;3;
74880;PMS5003;63427;49.654;6.596;2023-08-08T11:05:14;3;3;
74880;PMS5003;63427;49.654;6.596;2023-08-08T11:07:40;3;3;
74880;PMS5003;63427;49.654;6.596;2023-08-08T11:10:06;4;4;
74880;PMS5003;63427;49.654;6.596;2023-08-08T11:12:32;2;2;
74880;PMS5003;63427;49.654;6.596;2023-08-08T11:14:58;3;3;
74880;PMS5003;63427;49.654;6.596;2023-08-08T11:17:23;3;3;
74880;PMS5003;63427;49.654;6.596;2023-08-08T11:19:50;3;3;
74880;PMS5003;63427;49.654;6.596;2023-08-08T11:22:15;3;3;
74880;PMS5003;63427;49.654;6.596;2023-08-08T11:24:40;2;2;
74880;PMS5003;63427;49.654;6.596;2023-08-08T11:27:06;3;3;
74880;PMS5003;63427;49.654;6.596;2023-08-08T11:29:32;3;3;
74880;PMS5003;63427;49.654;6.596;2023-08-08T11:31:59;2;2;
74880;PMS5003;63427;49.654;6.596;2023-08-08T11:34:23;3;3;
74880;PMS5003;63427;49.654;6.596;2023-08-08T11:36:49;1;1;
74880;PMS5003;63427;49.654;6.596;2023-08-08T11:39:15;3;3;
74880;PMS5003;63427;49.654;6.596;2023-08-08T11:41:41;3;3;
74880;PMS5003;63427;49.654;6.596;2023-08-08T11:44:07;1;1;
74880;PMS5003;63427;49.654;6.596;2023-08-08T11:46:32;2;2;
74880;PMS5003;63427;49.654;6.596;2023-08-08T11:49:02;3;3;
74880;PMS5003;63427;49.654;6.596;2023-08-08T11:51:24;3;3;
74880;PMS5003;63427;49.654;6.596;2023-08-08T11:53:50;2;2;
74880;PMS5003;63427;49.654;6.596;2023-08-08T11:56:15;3;3;
74880;PMS5003;63427;49.654;6.596;2023-08-08T11:58:41;2;2;
74880;PMS5003;63427;49.654;6.596;2023-08-08T12:01:07;2;2;
74880;PMS5003;63427;49.654;6.596;2023-08-08T12:03:34;5;4;
74880;PMS5003;63427;49.654;6.596;2023-08-08T12:05:59;3;3;
74880;PMS5003;63427;49.654;6.596;2023-08-08T12:08:24;3;3;
74880;PMS5003;63427;49.654;6.596;2023-08-08T12:10:50;3;3;
74880;PMS5003;63427;49.654;6.596;2023-08-08T12:13:19;2;2;
74880;PMS5003;63427;49.654;6.596;2023-08-08T12:15:42;2;2;
74880;PMS5003;63427;49.654;6.596;2023-08-08T12:18:08;4;4;
74880;PMS5003;63427;49.654;6.596;2023-08-08T12:20:34;4;3;
74880;PMS5003;63427;49.654;6.596;2023-08-08T12:22:59;4;4;
74880;PMS5003;63427;49.654;6.596;2023-08-08T12:25:25;3;3;
74880;PMS5003;63427;49.654;6.596;2023-08-08T12:27:51;4;4;
74880;PMS5003;63427;49.654;6.596;2023-08-08T12:30:17;4;4;
74880;PMS5003;63427;49.654;6.596;2023-08-08T12:32:43;3;3;
74880;PMS5003;63427;49.654;6.596;2023-08-08T12:35:08;4;4;
74880;PMS5003;63427;49.654;6.596;2023-08-08T12:37:33;5;4;
74880;PMS5003;63427;49.654;6.596;2023-08-08T12:39:58;5;5;
74880;PMS5003;63427;49.654;6.596;2023-08-08T12:42:23;5;5;
74880;PMS5003;63427;49.654;6.596;2023-08-08T12:44:48;4;4;
74880;PMS5003;63427;49.654;6.596;2023-08-08T12:47:13;2;2;
74880;PMS5003;63427;49.654;6.596;2023-08-08T12:49:38;3;3;
74880;PMS5003;63427;49.654;6.596;2023-08-08T12:52:03;5;4;
74880;PMS5003;63427;49.654;6.596;2023-08-08T12:54:29;4;3;
74880;PMS5003;63427;49.654;6.596;2023-08-08T12:56:55;3;3;
74880;PMS5003;63427;49.654;6.596;2023-08-08T12:59:20;3;3;
74880;PMS5003;63427;49.654;6.596;2023-08-08T13:01:45;4;4;
74880;PMS5003;63427;49.654;6.596;2023-08-08T13:04:10;4;4;
74880;PMS5003;63427;49.654;6.596;2023-08-08T13:06:35;4;4;
74880;PMS5003;63427;49.654;6.596;2023-08-08T13:09:00;4;4;
74880;PMS5003;63427;49.654;6.596;2023-08-08T13:11:26;4;4;
74880;PMS5003;63427;49.654;6.596;2023-08-08T13:13:51;5;5;
74880;PMS5003;63427;49.654;6.596;2023-08-08T13:16:16;4;4;
74880;PMS5003;63427;49.654;6.596;2023-08-08T13:18:41;4;4;
74880;PMS5003;63427;49.654;6.596;2023-08-08T13:21:06;5;5;
74880;PMS5003;63427;49.654;6.596;2023-08-08T13:23:31;4;4;
74880;PMS5003;63427;49.654;6.596;2023-08-08T13:25:56;5;4;
74880;PMS5003;63427;49.654;6.596;2023-08-08T13:28:21;3;3;
74880;PMS5003;63427;49.654;6.596;2023-08-08T13:30:46;5;5;
74880;PMS5003;63427;49.654;6.596;2023-08-08T13:33:11;7;7;
74880;PMS5003;63427;49.654;6.596;2023-08-08T13:35:36;9;7;
74880;PMS5003;63427;49.654;6.596;2023-08-08T13:38:01;6;6;
74880;PMS5003;63427;49.654;6.596;2023-08-08T13:40:26;7;7;
74880;PMS5003;63427;49.654;6.596;2023-08-08T13:42:51;7;7;
74880;PMS5003;63427;49.654;6.596;2023-08-08T13:45:17;7;7;
74880;PMS5003;63427;49.654;6.596;2023-08-08T13:47:42;9;8;
74880;PMS5003;63427;49.654;6.596;2023-08-08T13:50:07;6;6;
74880;PMS5003;63427;49.654;6.596;2023-08-08T13:52:32;7;6;
74880;PMS5003;63427;49.654;6.596;2023-08-08T13:54:57;6;6;
74880;PMS5003;63427;49.654;6.596;2023-08-08T13:57:22;6;6;
74880;PMS5003;63427;49.654;6.596;2023-08-08T13:59:47;7;6;
74880;PMS5003;63427;49.654;6.596;2023-08-08T14:02:12;7;7;
74880;PMS5003;63427;49.654;6.596;2023-08-08T14:04:38;8;8;
74880;PMS5003;63427;49.654;6.596;2023-08-08T14:07:03;7;7;
74880;PMS5003;63427;49.654;6.596;2023-08-08T14:09:28;7;6;
74880;PMS5003;63427;49.654;6.596;2023-08-08T14:11:53;8;7;
74880;PMS5003;63427;49.654;6.596;2023-08-08T14:14:18;10;8;
74880;PMS5003;63427;49.654;6.596;2023-08-08T14:16:43;7;6;
74880;PMS5003;63427;49.654;6.596;2023-08-08T14:19:08;8;8;
74880;PMS5003;63427;49.654;6.596;2023-08-08T14:21:33;7;7;
74880;PMS5003;63427;49.654;6.596;2023-08-08T14:23:58;7;6;
74880;PMS5003;63427;49.654;6.596;2023-08-08T14:26:23;8;6;
74880;PMS5003;63427;49.654;6.596;2023-08-08T14:28:48;8;8;
74880;PMS5003;63427;49.654;6.596;2023-08-08T14:31:13;6;6;
74880;PMS5003;63427;49.654;6.596;2023-08-08T14:33:38;6;5;
74880;PMS5003;63427;49.654;6.596;2023-08-08T14:36:04;7;7;
74880;PMS5003;63427;49.654;6.596;2023-08-08T14:38:33;9;9;
74880;PMS5003;63427;49.654;6.596;2023-08-08T14:40:54;6;6;
74880;PMS5003;63427;49.654;6.596;2023-08-08T14:43:19;6;6;
74880;PMS5003;63427;49.654;6.596;2023-08-08T14:45:44;7;7;
74880;PMS5003;63427;49.654;6.596;2023-08-08T14:48:09;7;7;
74880;PMS5003;63427;49.654;6.596;2023-08-08T14:50:34;7;7;
74880;PMS5003;63427;49.654;6.596;2023-08-08T14:52:59;7;6;
74880;PMS5003;63427;49.654;6.596;2023-08-08T14:55:24;7;7;
74880;PMS5003;63427;49.654;6.596;2023-08-08T14:57:49;6;6;
74880;PMS5003;63427;49.654;6.596;2023-08-08T15:00:14;4;4;
74880;PMS5003;63427;49.654;6.596;2023-08-08T15:02:39;7;7;
74880;PMS5003;63427;49.654;6.596;2023-08-08T15:05:05;7;7;
74880;PMS5003;63427;49.654;6.596;2023-08-08T15:07:29;4;4;
74880;PMS5003;63427;49.654;6.596;2023-08-08T15:09:54;5;5;
74880;PMS5003;63427;49.654;6.596;2023-08-08T15:12:19;8;8;
74880;PMS5003;63427;49.654;6.596;2023-08-08T15:14:44;4;4;
74880;PMS5003;63427;49.654;6.596;2023-08-08T15:17:10;7;7;
74880;PMS5003;63427;49.654;6.596;2023-08-08T15:19:35;7;7;
74880;PMS5003;63427;49.654;6.596;2023-08-08T15:22:01;6;6;
74880;PMS5003;63427;49.654;6.596;2023-08-08T15:24:27;6;6;
74880;PMS5003;63427;49.654;6.596;2023-08-08T15:26:53;4;4;
74880;PMS5003;63427;49.654;6.596;2023-08-08T15:29:19;5;5;
74880;PMS5003;63427;49.654;6.596;2023-08-08T15:31:45;5;5;
74880;PMS5003;63427;49.654;6.596;2023-08-08T15:34:10;6;6;
74880;PMS5003;63427;49.654;6.596;2023-08-08T15:36:36;7;7;
74880;PMS5003;63427;49.654;6.596;2023-08-08T15:39:02;6;6;
74880;PMS5003;63427;49.654;6.596;2023-08-08T15:41:40;4;4;
74880;PMS5003;63427;49.654;6.596;2023-08-08T15:43:54;6;6;
74880;PMS5003;63427;49.654;6.596;2023-08-08T15:46:20;4;4;
74880;PMS5003;63427;49.654;6.596;2023-08-08T15:48:46;5;5;
74880;PMS5003;63427;49.654;6.596;2023-08-08T15:51:11;6;6;
74880;PMS5003;63427;49.654;6.596;2023-08-08T15:53:37;5;5;
74880;PMS5003;63427;49.654;6.596;2023-08-08T15:56:03;7;7;
74880;PMS5003;63427;49.654;6.596;2023-08-08T15:58:29;5;5;
74880;PMS5003;63427;49.654;6.596;2023-08-08T16:00:54;6;6;
74880;PMS5003;63427;49.654;6.596;2023-08-08T16:03:19;4;4;
74880;PMS5003;63427;49.654;6.596;2023-08-08T16:05:44;5;5;
74880;PMS5003;63427;49.654;6.596;2023-08-08T16:08:09;8;6;
74880;PMS5003;63427;49.654;6.596;2023-08-08T16:10:35;4;4;
74880;PMS5003;63427;49.654;6.596;2023-08-08T16:13:00;5;5;
74880;PMS5003;63427;49.654;6.596;2023-08-08T16:15:25;7;6;
74880;PMS5003;63427;49.654;6.596;2023-08-08T16:17:50;4;4;
74880;PMS5003;63427;49.654;6.596;2023-08-08T16:20:15;4;4;
74880;PMS5003;63427;49.654;6.596;2023-08-08T16:22:40;7;5;
74880;PMS5003;63427;49.654;6.596;2023-08-08T16:25:05;7;6;
74880;PMS5003;63427;49.654;6.596;2023-08-08T16:27:30;5;4;
74880;PMS5003;63427;49.654;6.596;2023-08-08T16:29:55;7;5;
74880;PMS5003;63427;49.654;6.596;2023-08-08T16:32:20;3;3;
74880;PMS5003;63427;49.654;6.596;2023-08-08T16:34:46;5;5;
74880;PMS5003;63427;49.654;6.596;2023-08-08T16:37:11;6;6;
74880;PMS5003;63427;49.654;6.596;2023-08-08T16:39:36;4;4;